Kent, Minnesota
Current Conditions -  °F | °C
As of 10:55 PM on Saturday 22 Nov 2014 (Local Time) from KBWP Reporting Station
Overcast Overcast  
Wind Chill: 24°   Ceiling: 100
Heat Index: 32°   Visibility: 0.75mi
Dew Point: 32°   Wind: 10mph
Humidity: 100%   Direction: 150°SSE
Pressure: 29.39"   Gusts: NA
Location:  46.44°N, 96.68°W
Report Text: KBWP 230455Z AUTO 15009KT 3/4SM OVC001 00/00 A2939 RMK AO1
Loading
Personal Weather Stations






























Interactive Weather Map New forecast layout! Learn more

10-Day Weather Forecast

Advertisements
Track Severe Weather on mobile